Time;durP1;ratioP1;P1;durP2;ratioP2;P2;SDS_P1;SDS_P2;PMS_P1;PMS_P2;Temp;Humidity;BMP_temperature;BMP_pressure;BME280_temperature;BME280_humidity;BME280_pressure;Samples;Min_cycle;Max_cycle;Signal;HPM_P1;HPM_P2
2021/01/24 00:00:26;;;;;;;6.90;6.30;;;8.20;97.50;;;;;;5052462;28;20462;-76
2021/01/24 00:02:52;;;;;;;7.20;6.43;;;8.10;97.60;;;;;;5050957;28;20431;-77
2021/01/24 00:05:18;;;;;;;7.83;7.13;;;8.10;97.50;;;;;;5050741;28;20471;-81
2021/01/24 00:07:44;;;;;;;8.80;7.90;;;8.10;97.70;;;;;;5051429;28;20437;-77
2021/01/24 00:10:13;;;;;;;7.50;6.80;;;8.10;97.40;;;;;;5052563;28;20413;-75
2021/01/24 00:12:40;;;;;;;8.20;7.40;;;8.00;96.90;;;;;;5048319;28;20192;-76
2021/01/24 00:15:07;;;;;;;8.60;6.97;;;8.00;97.10;;;;;;5039687;28;20421;-74
2021/01/24 00:17:33;;;;;;;8.13;7.33;;;7.90;97.50;;;;;;5051856;28;20412;-75
2021/01/24 00:20:00;;;;;;;8.40;7.60;;;7.80;97.80;;;;;;5051315;28;20503;-75
2021/01/24 00:22:27;;;;;;;10.90;8.00;;;7.80;98.10;;;;;;5051902;28;20385;-75
2021/01/24 00:24:54;;;;;;;9.57;8.67;;;7.80;97.80;;;;;;5051470;28;20399;-76
2021/01/24 00:27:20;;;;;;;8.93;8.13;;;7.70;98.00;;;;;;5052082;28;20437;-75
2021/01/24 00:29:45;;;;;;;10.03;9.03;;;7.60;98.10;;;;;;5051462;28;20401;-76
2021/01/24 00:32:11;;;;;;;9.20;8.30;;;7.60;98.40;;;;;;5052067;28;20228;-76
2021/01/24 00:34:37;;;;;;;11.10;8.83;;;7.60;98.20;;;;;;5042083;28;20911;-76
2021/01/24 00:37:03;;;;;;;9.83;8.53;;;7.60;98.50;;;;;;5045385;28;20641;-75
2021/01/24 00:39:28;;;;;;;8.80;7.90;;;7.50;98.70;;;;;;5049534;28;20910;-76
2021/01/24 00:41:54;;;;;;;9.40;8.40;;;7.40;98.70;;;;;;5049321;28;20178;-76
2021/01/24 00:44:20;;;;;;;9.47;8.57;;;7.40;98.80;;;;;;5049777;28;20175;-76
2021/01/24 00:46:45;;;;;;;9.70;8.80;;;7.40;99.50;;;;;;5046956;28;20181;-76
2021/01/24 00:49:11;;;;;;;10.53;9.30;;;7.40;99.40;;;;;;5047596;28;20221;-76
2021/01/24 00:51:37;;;;;;;9.97;9.07;;;7.30;99.30;;;;;;5046577;28;20236;-76
2021/01/24 00:54:03;;;;;;;8.70;7.90;;;7.30;99.20;;;;;;5049630;28;20246;-76
2021/01/24 00:56:29;;;;;;;8.50;7.77;;;7.30;99.30;;;;;;5044675;28;20400;-76
2021/01/24 00:58:55;;;;;;;8.73;8.03;;;7.30;99.20;;;;;;5047335;28;20193;-76
2021/01/24 01:01:20;;;;;;;8.50;7.70;;;7.30;99.00;;;;;;5049747;28;20175;-76
2021/01/24 01:03:46;;;;;;;7.73;7.03;;;7.30;98.90;;;;;;5031869;28;20242;-76
2021/01/24 01:06:12;;;;;;;8.40;7.57;;;7.30;99.00;;;;;;5050171;28;20175;-76
2021/01/24 01:08:38;;;;;;;8.33;7.53;;;7.20;98.90;;;;;;5050619;28;20209;-76
2021/01/24 01:11:04;;;;;;;8.57;7.80;;;7.10;99.30;;;;;;5051245;28;20455;-75
2021/01/24 01:13:30;;;;;;;7.90;7.20;;;6.90;99.40;;;;;;5051061;28;20381;-75
2021/01/24 01:15:55;;;;;;;8.40;7.70;;;6.90;99.50;;;;;;5050379;28;20170;-76
2021/01/24 01:18:21;;;;;;;8.20;7.60;;;6.90;99.60;;;;;;5045877;28;20641;-75
2021/01/24 01:20:47;;;;;;;8.37;7.57;;;6.80;99.70;;;;;;5051096;28;20262;-76
2021/01/24 01:23:13;;;;;;;8.70;7.20;;;6.90;99.90;;;;;;5051832;28;20269;-76
2021/01/24 01:25:39;;;;;;;8.53;7.77;;;6.90;99.90;;;;;;5051162;28;20433;-77
2021/01/24 01:28:05;;;;;;;8.77;7.97;;;6.90;99.90;;;;;;5050528;28;20822;-75
2021/01/24 01:30:31;;;;;;;8.97;8.07;;;6.90;99.60;;;;;;5051581;28;20174;-76
2021/01/24 01:32:56;;;;;;;7.57;6.97;;;6.90;99.90;;;;;;5050658;28;20420;-76
2021/01/24 01:35:22;;;;;;;8.10;7.43;;;6.90;99.90;;;;;;5051571;28;20174;-76
2021/01/24 01:37:48;;;;;;;7.97;7.17;;;6.90;99.90;;;;;;5050816;28;20174;-76
2021/01/24 01:40:14;;;;;;;7.47;6.77;;;6.90;99.90;;;;;;5050199;28;20375;-76
2021/01/24 01:42:40;;;;;;;7.30;6.70;;;6.90;99.90;;;;;;5051623;28;20226;-77
2021/01/24 01:45:06;;;;;;;7.30;6.60;;;6.90;99.90;;;;;;5051439;28;20441;-77
2021/01/24 01:47:33;;;;;;;7.83;6.90;;;7.00;99.90;;;;;;5051836;28;20451;-77
2021/01/24 01:49:59;;;;;;;8.00;6.67;;;7.00;99.90;;;;;;5050793;28;20415;-76
2021/01/24 01:52:28;;;;;;;8.03;7.30;;;6.90;99.90;;;;;;5075893;28;20965;-76
2021/01/24 01:54:54;;;;;;;8.10;7.30;;;6.80;99.90;;;;;;5033430;28;20405;-76
2021/01/24 01:57:21;;;;;;;6.90;6.30;;;6.90;99.90;;;;;;5035228;28;20414;-76
2021/01/24 01:59:47;;;;;;;7.37;6.77;;;6.80;99.90;;;;;;5042075;28;20555;-76
2021/01/24 02:02:19;;;;;;;6.30;5.80;;;6.80;99.90;;;;;;5055165;28;20382;-76
2021/01/24 02:05:03;;;;;;;10.80;7.00;;;6.80;99.90;;;;;;5054446;28;20865;-78
2021/01/24 02:07:41;;;;;;;7.47;6.53;;;6.80;99.90;;;;;;5054984;28;20421;-76
2021/01/24 02:10:21;;;;;;;6.70;6.10;;;6.80;99.90;;;;;;5054678;28;20396;-83
2021/01/24 02:13:02;;;;;;;6.40;5.70;;;6.90;99.90;;;;;;5052937;28;20773;-80
2021/01/24 02:15:30;;;;;;;6.10;5.60;;;6.90;99.90;;;;;;5059653;28;20457;-81
2021/01/24 02:18:02;;;;;;;7.17;6.50;;;7.00;99.90;;;;;;5059645;28;20424;-81
2021/01/24 02:20:39;;;;;;;8.03;6.67;;;7.00;99.90;;;;;;5062965;28;20866;-80
2021/01/24 02:23:11;;;;;;;5.60;5.10;;;7.00;99.90;;;;;;5061286;28;20494;-80
2021/01/24 02:25:58;;;;;;;5.83;5.33;;;7.00;99.90;;;;;;5059984;28;20719;-80
2021/01/24 02:29:05;;;;;;;6.57;5.97;;;7.00;99.90;;;;;;5061665;28;20946;-80
2021/01/24 02:31:33;;;;;;;6.53;5.97;;;6.90;99.90;;;;;;5062618;28;20186;-81
2021/01/24 02:34:00;;;;;;;6.30;5.70;;;6.90;99.90;;;;;;5061216;28;20782;-79
2021/01/24 02:36:27;;;;;;;5.97;5.47;;;6.90;99.90;;;;;;5073559;28;20269;-80
2021/01/24 02:38:54;;;;;;;5.80;5.20;;;6.80;99.90;;;;;;5073847;28;20173;-79
2021/01/24 02:41:21;;;;;;;5.40;5.00;;;6.80;99.90;;;;;;5073337;28;20430;-79
2021/01/24 02:43:48;;;;;;;4.97;4.60;;;6.80;99.90;;;;;;5073758;28;20375;-79
2021/01/24 02:46:15;;;;;;;5.37;4.97;;;6.80;99.90;;;;;;5073238;28;20405;-76
2021/01/24 02:48:49;;;;;;;5.40;4.95;;;6.60;99.90;;;;;;5074265;28;20443;-79
2021/01/24 02:51:16;;;;;;;5.13;4.72;;;6.40;99.90;;;;;;5060214;28;20291;-79
2021/01/24 02:53:44;;;;;;;5.38;4.97;;;6.20;99.90;;;;;;5053817;28;20767;-78
2021/01/24 02:56:10;;;;;;;5.30;4.80;;;6.10;99.90;;;;;;5053859;28;20181;-78
2021/01/24 02:58:37;;;;;;;4.75;4.45;;;5.90;99.90;;;;;;5084536;28;20178;-79
2021/01/24 03:01:03;;;;;;;4.90;4.50;;;5.70;99.90;;;;;;5053475;28;20182;-79
2021/01/24 03:03:29;;;;;;;3.90;3.70;;;5.40;99.90;;;;;;5052743;28;20178;-78
2021/01/24 03:05:55;;;;;;;5.03;4.63;;;5.30;99.90;;;;;;5050690;28;20478;-74
2021/01/24 03:08:21;;;;;;;4.80;4.40;;;5.10;99.90;;;;;;5053942;28;20483;-74
2021/01/24 03:10:47;;;;;;;4.30;4.00;;;4.90;99.90;;;;;;5053219;28;20178;-74
2021/01/24 03:13:13;;;;;;;4.00;3.80;;;4.70;99.90;;;;;;5053731;28;20517;-74
2021/01/24 03:15:40;;;;;;;4.47;4.17;;;4.70;99.90;;;;;;5054030;28;20211;-74
2021/01/24 03:18:09;;;;;;;3.67;3.47;;;4.80;99.90;;;;;;5051665;28;20323;-74
2021/01/24 03:20:40;;;;;;;3.25;3.10;;;4.70;99.90;;;;;;5053741;28;20594;-74
2021/01/24 03:23:06;;;;;;;3.63;3.42;;;4.70;99.90;;;;;;5053013;28;20177;-74
2021/01/24 03:25:35;;;;;;;4.05;3.85;;;4.50;99.90;;;;;;5053337;28;20226;-73
2021/01/24 03:28:02;;;;;;;3.80;3.60;;;4.50;99.90;;;;;;5052856;28;20212;-74
2021/01/24 03:30:28;;;;;;;4.25;4.05;;;4.60;99.90;;;;;;5052479;28;20648;-74
2021/01/24 03:32:53;;;;;;;4.17;3.97;;;4.60;99.90;;;;;;5052910;28;20205;-74
2021/01/24 03:35:19;;;;;;;5.50;5.00;;;4.70;99.90;;;;;;5069001;28;20178;-74
2021/01/24 03:37:45;;;;;;;4.50;4.20;;;4.80;99.90;;;;;;5053410;28;20420;-74
2021/01/24 03:40:11;;;;;;;4.47;4.17;;;4.80;99.90;;;;;;5068418;28;20184;-74
2021/01/24 03:42:37;;;;;;;3.80;3.60;;;4.90;99.90;;;;;;5053397;28;20495;-74
2021/01/24 03:45:04;;;;;;;3.70;3.50;;;5.00;99.90;;;;;;5050933;28;20256;-74
2021/01/24 03:47:30;;;;;;;3.80;3.60;;;5.10;99.90;;;;;;5053136;28;20423;-74
2021/01/24 03:49:55;;;;;;;3.93;3.63;;;5.20;99.90;;;;;;5052428;28;20178;-74
2021/01/24 03:52:21;;;;;;;3.50;3.33;;;5.20;99.90;;;;;;5053258;28;20681;-74
2021/01/24 03:54:47;;;;;;;3.20;3.10;;;5.30;99.90;;;;;;5052586;28;20188;-74
2021/01/24 03:57:12;;;;;;;3.40;3.30;;;5.30;99.90;;;;;;5052457;28;20182;-74
2021/01/24 03:59:38;;;;;;;3.50;3.30;;;5.40;99.90;;;;;;5051863;28;20614;-74
2021/01/24 04:02:04;;;;;;;3.60;3.40;;;5.50;99.90;;;;;;5052263;28;20265;-74
2021/01/24 04:04:30;;;;;;;3.40;3.20;;;5.60;99.90;;;;;;5052994;28;20175;-74
2021/01/24 04:06:55;;;;;;;3.40;3.20;;;5.60;99.90;;;;;;5052115;28;20857;-74
2021/01/24 04:09:21;;;;;;;3.30;3.10;;;5.60;99.90;;;;;;5052802;28;20602;-74
2021/01/24 04:11:47;;;;;;;2.80;2.70;;;5.60;99.90;;;;;;5051194;28;20255;-74
2021/01/24 04:14:13;;;;;;;2.80;2.70;;;5.60;99.90;;;;;;5052081;28;20178;-74
2021/01/24 04:16:38;;;;;;;2.90;2.73;;;5.70;99.90;;;;;;5052392;28;20253;-74
2021/01/24 04:19:04;;;;;;;2.87;2.77;;;5.70;99.90;;;;;;5051573;28;20416;-74
2021/01/24 04:21:30;;;;;;;3.57;3.37;;;5.70;99.90;;;;;;5052650;28;20166;-74
2021/01/24 04:23:55;;;;;;;3.00;2.80;;;5.70;99.90;;;;;;5051648;28;20189;-74
2021/01/24 04:26:21;;;;;;;2.90;2.80;;;5.70;99.90;;;;;;5052655;28;20208;-74
2021/01/24 04:28:47;;;;;;;2.40;2.30;;;5.70;99.90;;;;;;5052492;28;20213;-74
2021/01/24 04:31:13;;;;;;;2.13;2.03;;;5.80;99.90;;;;;;5052004;28;20201;-74
2021/01/24 04:33:38;;;;;;;2.47;2.37;;;5.80;99.90;;;;;;5052308;28;20418;-74
2021/01/24 04:36:06;;;;;;;2.37;2.27;;;5.90;99.90;;;;;;5051685;28;20203;-74
2021/01/24 04:38:31;;;;;;;2.40;2.30;;;5.90;99.90;;;;;;5052448;28;20205;-74
2021/01/24 04:40:57;;;;;;;2.70;2.60;;;5.90;99.90;;;;;;5051619;28;20676;-74
2021/01/24 04:43:23;;;;;;;2.90;2.80;;;5.90;99.90;;;;;;5052397;28;20177;-74
2021/01/24 04:45:49;;;;;;;2.75;2.65;;;6.00;99.90;;;;;;5052217;28;20185;-74
2021/01/24 04:48:15;;;;;;;3.57;3.37;;;6.00;99.90;;;;;;5051801;28;20202;-74
2021/01/24 04:50:41;;;;;;;3.63;3.47;;;6.00;99.90;;;;;;5051936;28;20404;-74
2021/01/24 04:53:07;;;;;;;3.00;2.90;;;6.10;99.80;;;;;;5051325;28;20428;-74
2021/01/24 04:55:34;;;;;;;4.73;4.33;;;6.10;99.80;;;;;;5052112;28;20260;-74
2021/01/24 04:58:01;;;;;;;5.80;5.40;;;6.10;99.80;;;;;;5050113;28;20178;-74
2021/01/24 05:00:27;;;;;;;7.28;6.68;;;6.10;99.70;;;;;;5052130;28;20197;-74
2021/01/24 05:02:53;;;;;;;7.53;6.93;;;6.10;99.60;;;;;;5051500;28;20216;-74
2021/01/24 05:05:18;;;;;;;8.50;7.80;;;6.10;99.70;;;;;;5052329;28;20203;-74
2021/01/24 05:07:54;;;;;;;8.80;8.00;;;6.10;99.90;;;;;;5050748;28;20662;-74
2021/01/24 05:10:30;;;;;;;8.05;7.45;;;6.10;99.60;;;;;;5052031;28;20166;-74
2021/01/24 05:12:57;;;;;;;7.68;7.07;;;6.10;99.80;;;;;;5049648;28;20165;-74
2021/01/24 05:15:24;;;;;;;6.90;6.40;;;6.20;99.70;;;;;;5052185;28;20166;-74
2021/01/24 05:17:52;;;;;;;7.40;6.80;;;6.10;99.70;;;;;;5051951;28;20479;-74
2021/01/24 05:20:21;;;;;;;7.72;7.13;;;6.10;99.60;;;;;;5051632;28;20189;-74
2021/01/24 05:22:46;;;;;;;7.60;7.00;;;6.10;99.80;;;;;;5051788;28;20174;-74
2021/01/24 05:25:15;;;;;;;8.17;7.53;;;6.10;99.70;;;;;;5051154;28;20758;-74
2021/01/24 05:27:41;;;;;;;7.60;7.00;;;6.10;99.50;;;;;;5052113;28;20460;-74
2021/01/24 05:30:07;;;;;;;8.67;7.77;;;6.10;99.60;;;;;;5054268;28;20181;-75
2021/01/24 05:32:43;;;;;;;10.07;9.18;;;6.10;99.60;;;;;;5055540;28;20723;-74
2021/01/24 05:35:11;;;;;;;10.38;9.38;;;6.10;99.90;;;;;;5053767;28;20170;-74
2021/01/24 05:37:44;;;;;;;10.98;10.00;;;6.10;99.90;;;;;;5055523;28;20205;-74
2021/01/24 05:40:10;;;;;;;10.35;9.45;;;6.00;99.90;;;;;;5054838;28;20261;-74
2021/01/24 05:42:39;;;;;;;10.98;10.00;;;6.00;99.90;;;;;;5055918;28;20533;-74
2021/01/24 05:45:13;;;;;;;12.38;11.27;;;6.00;99.90;;;;;;5054925;28;20170;-74
2021/01/24 05:47:42;;;;;;;11.13;10.00;;;6.00;99.90;;;;;;5055300;28;20541;-74
2021/01/24 05:50:12;;;;;;;11.38;10.30;;;6.00;99.90;;;;;;5054592;28;20173;-74
2021/01/24 05:52:40;;;;;;;11.57;10.57;;;6.00;99.90;;;;;;5055666;28;20282;-74
2021/01/24 05:55:07;;;;;;;10.77;9.88;;;6.00;99.90;;;;;;5054848;28;20189;-74
2021/01/24 05:57:37;;;;;;;9.80;9.10;;;6.10;99.90;;;;;;5055223;28;20537;-74
2021/01/24 06:00:05;;;;;;;9.38;8.60;;;6.00;99.90;;;;;;5054616;28;20244;-74
2021/01/24 06:02:31;;;;;;;9.48;8.75;;;6.00;99.90;;;;;;5053949;28;20531;-74
2021/01/24 06:04:57;;;;;;;8.63;7.97;;;6.00;99.90;;;;;;5054548;28;20174;-74
2021/01/24 06:07:24;;;;;;;8.98;8.30;;;5.90;99.90;;;;;;5053689;28;20178;-74
2021/01/24 06:09:50;;;;;;;8.40;7.70;;;5.90;99.90;;;;;;5055306;28;20185;-74
2021/01/24 06:12:17;;;;;;;8.50;7.60;;;5.90;99.90;;;;;;5054399;28;20174;-74
2021/01/24 06:14:49;;;;;;;7.85;7.35;;;5.90;99.90;;;;;;5055186;28;20177;-74
2021/01/24 06:17:24;;;;;;;6.95;6.45;;;5.80;99.90;;;;;;5054179;28;20755;-74
2021/01/24 06:19:57;;;;;;;6.57;6.10;;;5.80;99.90;;;;;;5054885;28;20250;-74
2021/01/24 06:22:28;;;;;;;6.50;6.10;;;5.90;99.90;;;;;;5053384;28;20610;-74
2021/01/24 06:24:57;;;;;;;6.15;5.75;;;5.90;99.90;;;;;;5054927;28;20175;-74
2021/01/24 06:27:26;;;;;;;5.20;4.93;;;5.90;99.90;;;;;;5054559;28;20215;-74
2021/01/24 06:29:54;;;;;;;5.20;4.90;;;5.80;99.90;;;;;;5053813;28;20193;-74
2021/01/24 06:32:25;;;;;;;5.40;5.00;;;5.70;99.90;;;;;;5053979;28;20655;-75
2021/01/24 06:34:53;;;;;;;4.55;4.35;;;5.80;99.90;;;;;;5054548;28;20174;-74
2021/01/24 06:37:21;;;;;;;4.30;4.10;;;5.70;99.90;;;;;;5053891;28;20173;-74
2021/01/24 06:39:53;;;;;;;4.85;4.55;;;5.70;99.90;;;;;;5052380;28;20186;-75
2021/01/24 06:42:35;;;;;;;4.65;4.35;;;5.70;99.90;;;;;;5053661;28;20683;-74
2021/01/24 06:45:01;;;;;;;5.00;4.70;;;5.60;99.90;;;;;;5053719;28;20198;-75
2021/01/24 06:47:39;;;;;;;5.40;5.00;;;5.60;99.90;;;;;;5054521;28;20205;-74
2021/01/24 06:50:35;;;;;;;5.75;5.35;;;5.60;99.90;;;;;;5053469;28;20174;-74
2021/01/24 06:53:05;;;;;;;5.15;4.85;;;5.60;99.90;;;;;;5053479;28;20220;-75
2021/01/24 06:55:31;;;;;;;5.40;5.00;;;5.60;99.90;;;;;;5054050;28;20193;-74
2021/01/24 06:57:57;;;;;;;4.30;4.10;;;5.60;99.90;;;;;;5054082;28;20537;-74
2021/01/24 07:00:23;;;;;;;4.80;4.50;;;5.60;99.90;;;;;;5052099;28;20261;-74
2021/01/24 07:02:49;;;;;;;4.60;4.30;;;5.60;99.90;;;;;;5052917;28;20181;-74
2021/01/24 07:05:20;;;;;;;4.97;4.67;;;5.50;99.90;;;;;;5053472;28;20610;-74
2021/01/24 07:07:49;;;;;;;4.20;4.00;;;5.60;99.90;;;;;;5053332;28;20296;-74
2021/01/24 07:10:36;;;;;;;4.57;4.38;;;5.60;99.90;;;;;;5051489;28;20177;-75
2021/01/24 07:13:25;;;;;;;4.53;4.22;;;5.60;99.90;;;;;;5048859;28;20260;-75
2021/01/24 07:16:06;;;;;;;4.60;4.30;;;5.60;99.90;;;;;;5044082;28;20539;-74
2021/01/24 07:18:40;;;;;;;5.10;4.68;;;5.60;99.90;;;;;;5076391;28;20514;-74
2021/01/24 07:21:06;;;;;;;5.55;5.15;;;5.50;99.90;;;;;;5051593;28;20173;-75
2021/01/24 07:23:33;;;;;;;4.90;4.50;;;5.50;99.90;;;;;;5053420;28;20190;-74
2021/01/24 07:26:03;;;;;;;4.72;4.50;;;5.60;99.90;;;;;;5052244;28;20451;-74
2021/01/24 07:28:29;;;;;;;4.50;4.20;;;5.50;99.90;;;;;;5051829;28;20213;-74
2021/01/24 07:31:00;;;;;;;4.90;4.60;;;5.60;99.90;;;;;;5053255;28;20186;-75
2021/01/24 07:33:27;;;;;;;5.30;5.00;;;5.60;99.90;;;;;;5053394;28;20261;-75
2021/01/24 07:35:56;;;;;;;4.60;4.40;;;5.50;99.90;;;;;;5053323;28;20239;-75
2021/01/24 07:38:22;;;;;;;5.10;4.80;;;5.50;99.90;;;;;;5052310;28;20174;-75
2021/01/24 07:40:52;;;;;;;5.93;5.53;;;5.50;99.90;;;;;;5052724;28;20181;-74
2021/01/24 07:43:18;;;;;;;5.60;5.20;;;5.50;99.90;;;;;;5052544;28;20177;-75
2021/01/24 07:45:46;;;;;;;6.28;5.82;;;5.50;99.90;;;;;;5053647;28;20181;-75
2021/01/24 07:48:13;;;;;;;7.20;6.60;;;5.40;99.90;;;;;;5051974;28;20201;-75
2021/01/24 07:50:39;;;;;;;7.03;6.43;;;5.40;99.90;;;;;;5053105;28;20174;-75
2021/01/24 07:53:06;;;;;;;7.43;6.72;;;5.50;99.90;;;;;;5051510;28;20220;-75
2021/01/24 07:55:32;;;;;;;8.20;7.50;;;5.40;99.90;;;;;;5051373;28;20224;-74
2021/01/24 07:57:57;;;;;;;8.13;7.33;;;5.50;99.90;;;;;;5052798;28;20185;-75
2021/01/24 08:00:24;;;;;;;8.70;8.00;;;5.40;99.90;;;;;;5052356;28;20737;-75
2021/01/24 08:02:50;;;;;;;9.68;8.70;;;5.40;99.90;;;;;;5052364;28;20553;-75
2021/01/24 08:05:16;;;;;;;9.60;8.70;;;5.50;99.90;;;;;;5051890;28;20173;-75
2021/01/24 08:07:44;;;;;;;8.83;8.03;;;5.50;99.90;;;;;;5083596;28;20663;-75
2021/01/24 08:10:10;;;;;;;9.95;9.05;;;5.60;99.90;;;;;;5052237;28;20660;-75
2021/01/24 08:12:35;;;;;;;9.93;9.03;;;5.60;99.90;;;;;;5053027;28;20178;-75
2021/01/24 08:15:01;;;;;;;10.80;9.70;;;5.60;99.90;;;;;;5052663;28;20401;-75
2021/01/24 08:17:28;;;;;;;11.33;10.23;;;5.50;99.90;;;;;;5051960;28;20545;-74
2021/01/24 08:19:55;;;;;;;12.00;10.50;;;5.50;99.90;;;;;;5052693;28;20387;-75
2021/01/24 08:22:25;;;;;;;12.30;11.10;;;5.50;99.90;;;;;;5051394;28;20923;-75
2021/01/24 08:24:53;;;;;;;11.45;10.35;;;5.60;99.90;;;;;;5051239;28;20229;-78
2021/01/24 08:27:19;;;;;;;10.93;9.82;;;5.70;99.90;;;;;;5049562;28;20181;-77
2021/01/24 08:29:45;;;;;;;12.13;10.93;;;5.70;99.90;;;;;;5052078;28;20209;-74
2021/01/24 08:32:11;;;;;;;9.83;8.90;;;5.80;99.90;;;;;;5083399;28;20182;-77
2021/01/24 08:34:37;;;;;;;11.93;9.93;;;5.90;99.90;;;;;;5051689;28;20387;-74
2021/01/24 08:37:06;;;;;;;12.70;10.35;;;5.90;99.90;;;;;;5053710;28;20174;-74
2021/01/24 08:39:32;;;;;;;9.98;8.98;;;5.90;99.90;;;;;;5059692;28;20182;-75
2021/01/24 08:41:58;;;;;;;9.98;8.43;;;5.90;99.90;;;;;;5051549;28;20260;-74
2021/01/24 08:44:24;;;;;;;11.50;9.87;;;5.90;99.90;;;;;;5050795;28;20497;-74
2021/01/24 08:46:51;;;;;;;10.83;9.83;;;6.00;99.90;;;;;;5052479;28;20661;-74
2021/01/24 08:49:23;;;;;;;11.32;10.15;;;5.90;99.90;;;;;;5050486;28;20715;-74
2021/01/24 08:51:56;;;;;;;13.18;10.52;;;5.90;99.90;;;;;;5050880;28;20226;-74
2021/01/24 08:54:36;;;;;;;12.50;11.18;;;6.00;99.90;;;;;;5049101;28;20673;-75
2021/01/24 08:57:18;;;;;;;13.50;11.63;;;6.00;99.90;;;;;;5052233;28;20557;-75
2021/01/24 08:59:49;;;;;;;14.73;11.90;;;6.00;99.90;;;;;;5051257;28;20233;-75
2021/01/24 09:02:36;;;;;;;13.20;11.80;;;5.90;99.90;;;;;;5050591;28;20260;-85
2021/01/24 09:05:24;;;;;;;12.85;11.05;;;6.10;99.90;;;;;;5051335;28;20193;-85
2021/01/24 09:07:50;;;;;;;13.17;11.87;;;6.90;99.90;;;;;;5030817;28;20214;-83
2021/01/24 09:10:22;;;;;;;13.57;11.43;;;7.70;99.90;;;;;;5037298;28;20425;-79
2021/01/24 09:12:57;;;;;;;14.00;12.50;;;8.40;99.90;;;;;;5050812;28;20689;-80
2021/01/24 09:15:24;;;;;;;18.13;13.70;;;9.00;99.90;;;;;;5050854;28;20484;-79
2021/01/24 09:17:52;;;;;;;18.00;14.70;;;9.50;98.20;;;;;;5051574;28;20422;-80
2021/01/24 09:20:19;;;;;;;16.07;14.37;;;10.00;97.00;;;;;;5050806;28;20474;-79
2021/01/24 09:22:45;;;;;;;15.90;14.20;;;10.30;94.60;;;;;;5050957;28;20423;-80
2021/01/24 09:25:11;;;;;;;16.23;14.27;;;10.80;95.50;;;;;;5051042;28;20467;-80
2021/01/24 09:27:37;;;;;;;18.87;15.60;;;11.20;95.20;;;;;;5049970;28;20916;-79
2021/01/24 09:30:24;;;;;;;18.23;16.27;;;11.50;93.90;;;;;;5050765;28;20434;-76
2021/01/24 09:32:50;;;;;;;19.93;14.70;;;12.00;95.50;;;;;;5051657;28;20403;-77
2021/01/24 09:35:16;;;;;;;16.70;14.93;;;12.10;92.80;;;;;;5051171;28;20773;-77
2021/01/24 09:37:42;;;;;;;16.27;14.67;;;12.40;92.50;;;;;;5051844;28;20181;-77
2021/01/24 09:40:08;;;;;;;16.50;14.50;;;12.50;90.70;;;;;;5051460;28;20347;-77
2021/01/24 09:42:34;;;;;;;197.73;121.47;;;12.70;92.20;;;;;;5051593;28;20178;-76
2021/01/24 09:45:00;;;;;;;26.63;20.23;;;12.80;91.00;;;;;;5051787;28;20406;-77
2021/01/24 09:47:26;;;;;;;21.57;16.53;;;12.90;88.50;;;;;;5050992;28;20173;-77
2021/01/24 09:49:51;;;;;;;19.87;15.90;;;12.80;89.00;;;;;;5051540;28;20506;-77
2021/01/24 09:52:17;;;;;;;19.90;15.20;;;12.90;87.70;;;;;;5050295;28;20286;-77
2021/01/24 09:54:43;;;;;;;17.80;14.90;;;12.90;87.20;;;;;;5051800;28;20183;-77
2021/01/24 09:57:09;;;;;;;18.63;16.50;;;13.00;89.00;;;;;;5050993;28;20192;-77
2021/01/24 09:59:34;;;;;;;21.10;16.37;;;13.00;89.50;;;;;;5051612;28;20170;-76
2021/01/24 10:02:00;;;;;;;17.00;15.00;;;13.10;87.20;;;;;;5083758;28;20205;-76
2021/01/24 10:04:26;;;;;;;17.23;14.63;;;13.10;87.40;;;;;;5050236;28;20257;-77
2021/01/24 10:06:51;;;;;;;18.03;15.13;;;13.00;84.80;;;;;;5050496;28;20284;-86
2021/01/24 10:09:17;;;;;;;17.27;15.10;;;13.10;85.30;;;;;;5058495;28;20220;-86
2021/01/24 10:11:43;;;;;;;20.30;16.67;;;13.20;85.70;;;;;;5051427;28;20593;-86
2021/01/24 10:14:09;;;;;;;17.10;15.10;;;13.20;83.40;;;;;;5048856;28;20563;-87
2021/01/24 10:16:35;;;;;;;18.20;15.70;;;13.20;85.00;;;;;;5052238;28;20637;-85
2021/01/24 10:19:00;;;;;;;18.30;16.20;;;13.20;81.10;;;;;;5053500;28;20445;-85
2021/01/24 10:21:26;;;;;;;21.30;17.13;;;13.20;80.80;;;;;;5053535;28;20191;-85
2021/01/24 10:23:52;;;;;;;19.53;17.07;;;13.30;81.10;;;;;;5053387;28;20646;-86
2021/01/24 10:26:18;;;;;;;19.53;17.43;;;13.30;80.00;;;;;;5052098;28;20300;-86
2021/01/24 10:28:44;;;;;;;22.57;17.47;;;13.30;78.60;;;;;;5053295;28;20959;-85
2021/01/24 10:31:10;;;;;;;21.33;17.13;;;13.20;77.10;;;;;;5053368;28;20177;-87
2021/01/24 10:33:36;;;;;;;20.10;17.70;;;13.10;79.20;;;;;;5052528;28;20181;-86
2021/01/24 10:36:02;;;;;;;22.43;16.33;;;13.20;79.10;;;;;;5036913;28;20423;-85
2021/01/24 10:38:28;;;;;;;22.30;16.37;;;13.20;79.20;;;;;;5054821;28;20427;-85
2021/01/24 10:40:53;;;;;;;21.50;18.00;;;13.20;78.30;;;;;;5053263;28;20426;-85
2021/01/24 10:43:19;;;;;;;20.37;18.07;;;13.20;80.60;;;;;;5065133;28;20180;-85
2021/01/24 10:45:48;;;;;;;18.00;16.10;;;13.30;78.50;;;;;;5057420;28;20654;-85
2021/01/24 10:48:16;;;;;;;18.10;16.20;;;13.30;79.80;;;;;;5053093;28;20506;-87
2021/01/24 10:50:42;;;;;;;19.20;15.60;;;13.20;77.00;;;;;;5036078;28;20412;-84
2021/01/24 10:53:08;;;;;;;18.50;16.50;;;13.20;75.60;;;;;;5052837;28;20511;-85
2021/01/24 10:55:35;;;;;;;20.73;16.27;;;13.10;76.40;;;;;;5053703;28;20414;-85
2021/01/24 10:58:02;;;;;;;17.33;15.33;;;13.10;77.30;;;;;;5052278;28;20787;-85
2021/01/24 11:00:28;;;;;;;441.27;291.97;;;13.20;79.10;;;;;;5052255;28;20411;-84
2021/01/24 11:02:54;;;;;;;24.73;20.03;;;13.30;79.20;;;;;;5052902;28;20502;-86
2021/01/24 11:05:20;;;;;;;22.17;16.30;;;13.30;78.30;;;;;;5051678;28;20589;-85
2021/01/24 11:07:46;;;;;;;17.13;14.10;;;13.30;78.00;;;;;;5068697;28;20460;-85
2021/01/24 11:10:12;;;;;;;16.13;14.43;;;13.40;76.40;;;;;;5033033;28;20205;-87
2021/01/24 11:12:40;;;;;;;15.17;13.30;;;13.30;75.80;;;;;;5059699;28;20188;-85
2021/01/24 11:15:07;;;;;;;14.50;13.00;;;13.30;78.40;;;;;;5060083;28;20424;-85
2021/01/24 11:17:33;;;;;;;15.90;14.20;;;13.30;77.10;;;;;;5057457;28;20494;-85
2021/01/24 11:19:59;;;;;;;16.77;14.23;;;13.10;75.00;;;;;;5056887;28;20422;-85
2021/01/24 11:22:24;;;;;;;14.83;13.33;;;13.00;75.40;;;;;;5057669;28;20275;-85
2021/01/24 11:24:50;;;;;;;17.10;14.10;;;13.00;76.50;;;;;;5057895;28;20183;-85
2021/01/24 11:27:18;;;;;;;14.80;13.00;;;13.00;77.40;;;;;;5042403;28;20653;-85
2021/01/24 11:29:44;;;;;;;15.43;12.80;;;13.10;77.90;;;;;;5054264;28;20277;-84
2021/01/24 11:32:10;;;;;;;14.10;12.63;;;13.20;79.00;;;;;;5049278;28;20425;-80
2021/01/24 11:34:38;;;;;;;14.30;12.43;;;13.20;76.40;;;;;;5051262;28;20219;-80
2021/01/24 11:37:07;;;;;;;14.67;12.77;;;13.20;75.40;;;;;;5052024;28;20469;-80
2021/01/24 11:39:34;;;;;;;17.10;13.40;;;13.20;74.60;;;;;;5051567;28;20416;-81
2021/01/24 11:42:00;;;;;;;16.13;13.25;;;13.20;74.90;;;;;;5053011;28;20423;-74
2021/01/24 11:44:26;;;;;;;18.10;14.77;;;13.10;74.90;;;;;;5031107;28;20189;-74
2021/01/24 11:46:53;;;;;;;17.50;15.40;;;12.80;73.00;;;;;;5048518;28;20417;-74
2021/01/24 11:49:20;;;;;;;17.90;14.70;;;12.20;73.20;;;;;;5046116;28;20256;-75
2021/01/24 11:51:46;;;;;;;22.60;17.00;;;11.60;74.40;;;;;;5051805;28;20466;-74
2021/01/24 11:54:12;;;;;;;19.83;16.50;;;11.20;76.50;;;;;;5035315;28;20437;-74
2021/01/24 11:56:39;;;;;;;135.13;86.30;;;10.70;78.40;;;;;;5052339;28;20438;-74
2021/01/24 11:59:05;;;;;;;121.60;69.63;;;10.20;80.50;;;;;;5051849;28;20420;-74
2021/01/24 12:01:31;;;;;;;24.80;18.70;;;9.80;84.30;;;;;;5050694;28;20428;-75
2021/01/24 12:03:56;;;;;;;26.10;17.83;;;9.40;86.10;;;;;;5052958;28;20178;-74
2021/01/24 12:06:22;;;;;;;24.03;16.60;;;9.00;88.00;;;;;;5033407;28;20231;-74
2021/01/24 12:08:48;;;;;;;22.80;16.30;;;8.80;89.60;;;;;;5052672;28;20462;-74
2021/01/24 12:11:14;;;;;;;23.73;15.70;;;8.40;90.70;;;;;;5052291;28;20168;-75
2021/01/24 12:13:39;;;;;;;21.97;15.40;;;8.10;91.50;;;;;;5052137;28;20207;-74
2021/01/24 12:16:05;;;;;;;19.33;14.53;;;7.90;92.40;;;;;;5052192;28;20636;-81
2021/01/24 12:18:31;;;;;;;19.10;14.20;;;7.70;93.10;;;;;;5051362;28;20437;-80
2021/01/24 12:20:57;;;;;;;22.03;15.60;;;7.50;93.70;;;;;;5052371;28;20391;-81
2021/01/24 12:23:22;;;;;;;20.53;14.43;;;7.40;94.10;;;;;;5051520;28;20266;-82
2021/01/24 12:25:49;;;;;;;20.90;14.63;;;7.20;94.60;;;;;;5051400;28;20177;-88
2021/01/24 12:28:15;;;;;;;22.03;14.60;;;7.10;94.90;;;;;;5058613;28;20558;-86
2021/01/24 12:30:40;;;;;;;21.13;14.17;;;7.10;95.40;;;;;;5056278;28;20428;-88
2021/01/24 12:33:11;;;;;;;18.73;13.47;;;7.00;95.70;;;;;;5053270;28;20937;-88
2021/01/24 12:35:38;;;;;;;19.10;14.20;;;7.00;96.00;;;;;;5044891;28;20178;-86
2021/01/24 12:38:04;;;;;;;20.73;14.50;;;6.90;96.20;;;;;;5050910;28;20729;-87
2021/01/24 12:40:30;;;;;;;21.10;13.87;;;6.90;96.40;;;;;;5050123;28;20421;-88
2021/01/24 12:43:00;;;;;;;19.27;13.37;;;6.80;96.70;;;;;;5063775;28;20467;-88
2021/01/24 12:45:28;;;;;;;17.95;14.30;;;6.70;96.70;;;;;;5050027;28;20411;-88
2021/01/24 12:47:54;;;;;;;20.25;13.93;;;6.70;97.00;;;;;;5073613;28;20307;-88
2021/01/24 12:50:20;;;;;;;17.47;13.40;;;6.80;97.10;;;;;;5053556;28;20256;-86